EWG2AZ EDDW-LEPA
Flight info
| Callsign | EWG2AZ |
|---|---|
| Flight time | N/A |
| Altitude | 36000 |
| Route | WIMCI1L WIMCI Y348 DOMEG DCT LIRSU DCT LIMGO/N0452F350 DCT SUTAL DCT GTQ DCT POGOL DCT LASAT DCT MOROK DCT GILIR DCT GEVEA DCT INCUS DCT BALSI DCT RETNO DCT TUPOX DCT MTG DCT DIVKO DCT VATIR DCT PIVUS DCT BODEQ DCT VERSO L129 LUNIK LUNI3P |
| Aircraft | A320/M-SDE3FGHIRWY/LB1 |
Departure
| Time | 2026-05-04 11:08 |
|---|---|
| Airport | Bremen Airport (EDDW) |
Arrival
| Time | N/A |
|---|---|
| Airport | Palma de Mallorca Airport (LEPA) |
| Time | Latitude | Longitude | Altitude | Speed | Heading |
|---|---|---|---|---|---|
| 2026-05-04 10:28 | 53.05173 | 8.78533 | 19 ft | 0 kts | 49° |
| 2026-05-04 10:39 | 53.05173 | 8.78532 | 19 ft | 0 kts | 49° |
| 2026-05-04 10:57 | 53.05166 | 8.78520 | 19 ft | 4 kts | 49° |
| 2026-05-04 10:57 | 53.05148 | 8.78487 | 23 ft | 4 kts | 49° |
| 2026-05-04 10:58 | 53.05134 | 8.78460 | 22 ft | 4 kts | 57° |
| 2026-05-04 10:58 | 53.05131 | 8.78430 | 22 ft | 2 kts | 122° |
| 2026-05-04 10:58 | 53.05141 | 8.78404 | 20 ft | 0 kts | 122° |
| 2026-05-04 11:01 | 53.05058 | 8.78539 | 19 ft | 13 kts | 139° |
| 2026-05-04 11:02 | 53.04993 | 8.78632 | 19 ft | 11 kts | 140° |
| 2026-05-04 11:02 | 53.04923 | 8.78655 | 19 ft | 10 kts | 177° |
| 2026-05-04 11:05 | 53.04885 | 8.80380 | 19 ft | 0 kts | 104° |
| 2026-05-04 11:06 | 53.04877 | 8.80412 | 19 ft | 8 kts | 119° |
| 2026-05-04 11:06 | 53.04811 | 8.80463 | 19 ft | 11 kts | 177° |
| 2026-05-04 11:06 | 53.04744 | 8.80461 | 20 ft | 8 kts | 182° |
| 2026-05-04 11:06 | 53.04725 | 8.80415 | 21 ft | 5 kts | 268° |
| 2026-05-04 11:08 | 53.04510 | 8.72203 | 1723 ft | 182 kts | 267° |
| 2026-05-04 11:10 | 52.96250 | 8.76411 | 5996 ft | 284 kts | 131° |
| 2026-05-04 11:12 | 52.84073 | 8.86674 | 10803 ft | 318 kts | 168° |
| 2026-05-04 11:12 | 52.81868 | 8.87720 | 10954 ft | 341 kts | 167° |
| 2026-05-04 11:12 | 52.79516 | 8.88854 | 11169 ft | 359 kts | 167° |
| 2026-05-04 11:12 | 52.77129 | 8.90037 | 11694 ft | 366 kts | 166° |
| 2026-05-04 11:13 | 52.74679 | 8.91279 | 12330 ft | 371 kts | 166° |
| 2026-05-04 11:13 | 52.72177 | 8.92319 | 12955 ft | 371 kts | 175° |
| 2026-05-04 11:13 | 52.69605 | 8.92544 | 13574 ft | 370 kts | 187° |
| 2026-05-04 11:13 | 52.67072 | 8.91890 | 14139 ft | 369 kts | 198° |
| 2026-05-04 11:14 | 52.64682 | 8.90383 | 14729 ft | 367 kts | 210° |
| 2026-05-04 11:14 | 52.62426 | 8.88412 | 15317 ft | 368 kts | 210° |
| 2026-05-04 11:14 | 52.60154 | 8.86433 | 15891 ft | 370 kts | 210° |
| 2026-05-04 11:16 | 52.43848 | 8.72392 | 19468 ft | 385 kts | 210° |
| 2026-05-04 11:16 | 52.41468 | 8.70347 | 19923 ft | 388 kts | 210° |
| 2026-05-04 11:16 | 52.39070 | 8.68295 | 20423 ft | 389 kts | 210° |
| 2026-05-04 11:17 | 52.36699 | 8.66269 | 20903 ft | 391 kts | 210° |
| 2026-05-04 11:17 | 52.34253 | 8.64185 | 21370 ft | 392 kts | 210° |
| 2026-05-04 11:19 | 52.19644 | 8.44442 | 24332 ft | 401 kts | 228° |
| 2026-05-04 11:19 | 52.17757 | 8.41072 | 24654 ft | 403 kts | 228° |
| 2026-05-04 11:19 | 52.15857 | 8.37683 | 25004 ft | 405 kts | 228° |
| 2026-05-04 11:19 | 52.13957 | 8.34296 | 25345 ft | 406 kts | 228° |
| 2026-05-04 11:20 | 52.12052 | 8.30899 | 25663 ft | 407 kts | 228° |
| 2026-05-04 11:20 | 52.10144 | 8.27499 | 25951 ft | 408 kts | 229° |
| 2026-05-04 11:20 | 52.08223 | 8.24075 | 26244 ft | 410 kts | 229° |
| 2026-05-04 11:20 | 52.06322 | 8.20689 | 26523 ft | 411 kts | 229° |
| 2026-05-04 11:22 | 51.92600 | 7.96500 | 28543 ft | 417 kts | 228° |
| 2026-05-04 11:22 | 51.90635 | 7.93040 | 28907 ft | 416 kts | 228° |
| 2026-05-04 11:23 | 51.88677 | 7.89597 | 29312 ft | 415 kts | 228° |
| 2026-05-04 11:23 | 51.86724 | 7.86171 | 29723 ft | 413 kts | 229° |
| 2026-05-04 11:24 | 51.75103 | 7.65933 | 31725 ft | 406 kts | 228° |
| 2026-05-04 11:25 | 51.73180 | 7.62597 | 32035 ft | 405 kts | 227° |
| 2026-05-04 11:25 | 51.71117 | 7.59520 | 32330 ft | 406 kts | 219° |
| 2026-05-04 11:25 | 51.68751 | 7.57030 | 32625 ft | 407 kts | 210° |
| 2026-05-04 11:26 | 51.63634 | 7.53073 | 33207 ft | 407 kts | 208° |
| 2026-05-04 11:27 | 51.45863 | 7.39464 | 34954 ft | 404 kts | 208° |
| 2026-05-04 11:28 | 51.40758 | 7.35578 | 34978 ft | 406 kts | 208° |
| 2026-05-04 11:28 | 51.35657 | 7.31693 | 34982 ft | 406 kts | 208° |
| 2026-05-04 11:29 | 51.30551 | 7.27803 | 34989 ft | 407 kts | 208° |
| 2026-05-04 11:29 | 51.25432 | 7.23931 | 34993 ft | 407 kts | 208° |
| 2026-05-04 11:33 | 50.89599 | 6.97107 | 34996 ft | 407 kts | 207° |
| 2026-05-04 11:33 | 50.84472 | 6.93307 | 35001 ft | 407 kts | 207° |
| 2026-05-04 11:34 | 50.79343 | 6.89518 | 35003 ft | 407 kts | 207° |
| 2026-05-04 11:34 | 50.74209 | 6.85744 | 34998 ft | 407 kts | 207° |
| 2026-05-04 11:35 | 50.69078 | 6.81971 | 34992 ft | 407 kts | 207° |
| 2026-05-04 11:35 | 50.63954 | 6.78199 | 35001 ft | 406 kts | 207° |
| 2026-05-04 11:36 | 50.58829 | 6.74431 | 34989 ft | 406 kts | 207° |
| 2026-05-04 11:36 | 50.53703 | 6.70690 | 34990 ft | 406 kts | 207° |
| 2026-05-04 11:37 | 50.48573 | 6.66959 | 34982 ft | 406 kts | 207° |
| 2026-05-04 11:37 | 50.43477 | 6.63250 | 34971 ft | 406 kts | 207° |
| 2026-05-04 11:38 | 50.38350 | 6.59532 | 34975 ft | 406 kts | 207° |
| 2026-05-04 11:38 | 50.33227 | 6.55821 | 34978 ft | 405 kts | 207° |
| 2026-05-04 11:39 | 50.28110 | 6.52122 | 34981 ft | 405 kts | 206° |
| 2026-05-04 11:40 | 50.12188 | 6.43295 | 34981 ft | 409 kts | 194° |
| 2026-05-04 11:41 | 50.09432 | 6.42429 | 34980 ft | 409 kts | 194° |
| 2026-05-04 11:41 | 50.03855 | 6.40674 | 34986 ft | 409 kts | 194° |
| 2026-05-04 11:42 | 49.98275 | 6.38919 | 34978 ft | 409 kts | 194° |
| 2026-05-04 11:42 | 49.92693 | 6.37161 | 34986 ft | 409 kts | 194° |
| 2026-05-04 11:43 | 49.87109 | 6.35417 | 35029 ft | 409 kts | 194° |
| 2026-05-04 11:43 | 49.81520 | 6.33684 | 35033 ft | 409 kts | 194° |
| 2026-05-04 11:44 | 49.75941 | 6.31949 | 35026 ft | 409 kts | 194° |
| 2026-05-04 11:44 | 49.70369 | 6.30221 | 35027 ft | 409 kts | 194° |
| 2026-05-04 11:45 | 49.64750 | 6.29181 | 35028 ft | 413 kts | 180° |
| 2026-05-04 11:45 | 49.59101 | 6.31145 | 35007 ft | 424 kts | 162° |
| 2026-05-04 11:46 | 49.53651 | 6.34690 | 34994 ft | 425 kts | 162° |
| 2026-05-04 11:46 | 49.48187 | 6.38204 | 34998 ft | 426 kts | 162° |
| 2026-05-04 11:47 | 49.42722 | 6.41769 | 34999 ft | 427 kts | 161° |
| 2026-05-04 11:47 | 49.37284 | 6.45504 | 35005 ft | 428 kts | 161° |
| 2026-05-04 11:48 | 49.31849 | 6.49258 | 35001 ft | 428 kts | 161° |
| 2026-05-04 11:48 | 49.26408 | 6.52966 | 35008 ft | 428 kts | 161° |
| 2026-05-04 11:49 | 49.20958 | 6.56641 | 35016 ft | 428 kts | 161° |
| 2026-05-04 11:49 | 49.15541 | 6.60292 | 35024 ft | 428 kts | 161° |
| 2026-05-04 11:50 | 49.10093 | 6.63956 | 34995 ft | 428 kts | 161° |
| 2026-05-04 11:50 | 49.04643 | 6.67605 | 35002 ft | 428 kts | 161° |
| 2026-05-04 11:51 | 48.99095 | 6.70778 | 35008 ft | 421 kts | 172° |
| 2026-05-04 11:51 | 48.93326 | 6.71420 | 35011 ft | 414 kts | 185° |
| 2026-05-04 11:52 | 48.87563 | 6.71176 | 35007 ft | 415 kts | 184° |
| 2026-05-04 11:52 | 48.81780 | 6.70956 | 35011 ft | 415 kts | 184° |
| 2026-05-04 11:53 | 48.76008 | 6.70736 | 35015 ft | 415 kts | 184° |
| 2026-05-04 11:53 | 48.70265 | 6.70520 | 35020 ft | 416 kts | 184° |
| 2026-05-04 11:55 | 48.48089 | 6.69647 | 35026 ft | 416 kts | 184° |
| 2026-05-04 11:56 | 48.42300 | 6.69419 | 35019 ft | 416 kts | 184° |
| 2026-05-04 11:56 | 48.36508 | 6.69200 | 35020 ft | 416 kts | 184° |
| 2026-05-04 11:57 | 48.30710 | 6.68990 | 35022 ft | 417 kts | 184° |
| 2026-05-04 11:57 | 48.24910 | 6.68776 | 35021 ft | 417 kts | 184° |
| 2026-05-04 11:58 | 48.19111 | 6.68549 | 35014 ft | 417 kts | 184° |
| 2026-05-04 11:58 | 48.13348 | 6.68316 | 35015 ft | 417 kts | 184° |
| 2026-05-04 11:59 | 48.07546 | 6.68089 | 35018 ft | 417 kts | 184° |
| 2026-05-04 11:59 | 48.01732 | 6.67878 | 35017 ft | 417 kts | 184° |
| 2026-05-04 12:00 | 47.95921 | 6.67666 | 35022 ft | 417 kts | 184° |
| 2026-05-04 12:00 | 47.90109 | 6.67440 | 35025 ft | 417 kts | 184° |
| 2026-05-04 12:01 | 47.84302 | 6.67216 | 35028 ft | 417 kts | 184° |
| 2026-05-04 12:02 | 47.63980 | 6.66455 | 35017 ft | 417 kts | 184° |
| 2026-05-04 12:03 | 47.58210 | 6.66234 | 35023 ft | 418 kts | 184° |
| 2026-05-04 12:03 | 47.52402 | 6.66016 | 35018 ft | 418 kts | 184° |
| 2026-05-04 12:04 | 47.46589 | 6.65812 | 35020 ft | 418 kts | 184° |
| 2026-05-04 12:04 | 47.40889 | 6.64653 | 35021 ft | 412 kts | 200° |
| 2026-05-04 12:05 | 47.35858 | 6.60731 | 35024 ft | 410 kts | 218° |
| 2026-05-04 12:05 | 47.31508 | 6.55303 | 35001 ft | 410 kts | 220° |
| 2026-05-04 12:06 | 47.27169 | 6.49863 | 35001 ft | 410 kts | 220° |
| 2026-05-04 12:06 | 47.22818 | 6.44422 | 35004 ft | 410 kts | 220° |
| 2026-05-04 12:07 | 47.18496 | 6.39034 | 35011 ft | 410 kts | 220° |
| 2026-05-04 12:07 | 47.14142 | 6.33622 | 35014 ft | 410 kts | 220° |
| 2026-05-04 12:08 | 47.09784 | 6.28231 | 35010 ft | 409 kts | 217° |
| 2026-05-04 12:08 | 47.04794 | 6.24291 | 35013 ft | 410 kts | 199° |
| 2026-05-04 12:09 | 46.99149 | 6.22951 | 35007 ft | 413 kts | 188° |
| 2026-05-04 12:09 | 46.93413 | 6.22197 | 35008 ft | 414 kts | 188° |
| 2026-05-04 12:10 | 46.87671 | 6.21434 | 35014 ft | 415 kts | 188° |
| 2026-05-04 12:10 | 46.81919 | 6.20658 | 35016 ft | 415 kts | 188° |
| 2026-05-04 12:11 | 46.76172 | 6.19896 | 35017 ft | 415 kts | 188° |
| 2026-05-04 12:11 | 46.70421 | 6.19139 | 35019 ft | 415 kts | 188° |
| 2026-05-04 12:12 | 46.64676 | 6.18382 | 35021 ft | 415 kts | 188° |
| 2026-05-04 12:12 | 46.58920 | 6.17617 | 35030 ft | 415 kts | 188° |
| 2026-05-04 12:14 | 46.35953 | 6.14605 | 35070 ft | 415 kts | 188° |
| 2026-05-04 12:15 | 46.30206 | 6.13856 | 35074 ft | 415 kts | 188° |
| 2026-05-04 12:15 | 46.24450 | 6.13086 | 35075 ft | 415 kts | 189° |
| 2026-05-04 12:16 | 46.18741 | 6.11926 | 35074 ft | 414 kts | 192° |
| 2026-05-04 12:16 | 46.13060 | 6.10540 | 35073 ft | 414 kts | 192° |
| 2026-05-04 12:17 | 46.07412 | 6.09207 | 35071 ft | 414 kts | 191° |
| 2026-05-04 12:17 | 46.01717 | 6.07940 | 35077 ft | 414 kts | 191° |
| 2026-05-04 12:18 | 45.96004 | 6.06696 | 35069 ft | 415 kts | 191° |
| 2026-05-04 12:18 | 45.90305 | 6.05447 | 35071 ft | 415 kts | 191° |
| 2026-05-04 12:19 | 45.84602 | 6.04188 | 35073 ft | 415 kts | 191° |
| 2026-05-04 12:19 | 45.78898 | 6.02931 | 35064 ft | 415 kts | 191° |
| 2026-05-04 12:20 | 45.73195 | 6.01669 | 35065 ft | 415 kts | 192° |
| 2026-05-04 12:20 | 45.67489 | 6.00407 | 35075 ft | 415 kts | 191° |
| 2026-05-04 12:21 | 45.61785 | 5.99149 | 35076 ft | 415 kts | 192° |
| 2026-05-04 12:21 | 45.56078 | 5.97888 | 35071 ft | 415 kts | 192° |
| 2026-05-04 12:22 | 45.50406 | 5.96639 | 35067 ft | 415 kts | 192° |
| 2026-05-04 12:22 | 45.44715 | 5.95287 | 35055 ft | 414 kts | 194° |
| 2026-05-04 12:23 | 45.39092 | 5.93518 | 35054 ft | 414 kts | 196° |
| 2026-05-04 12:23 | 45.33476 | 5.91640 | 35050 ft | 415 kts | 196° |
| 2026-05-04 12:24 | 45.27844 | 5.89839 | 35045 ft | 415 kts | 195° |
| 2026-05-04 12:24 | 45.22192 | 5.88094 | 35042 ft | 415 kts | 195° |
| 2026-05-04 12:25 | 45.19372 | 5.87226 | 35193 ft | 414 kts | 195° |
| 2026-05-04 12:25 | 45.16557 | 5.86362 | 35447 ft | 414 kts | 195° |
| 2026-05-04 12:25 | 45.13744 | 5.85497 | 35715 ft | 413 kts | 195° |
| 2026-05-04 12:25 | 45.10935 | 5.84632 | 35957 ft | 413 kts | 195° |
| 2026-05-04 12:26 | 45.08122 | 5.83763 | 36203 ft | 413 kts | 196° |
| 2026-05-04 12:26 | 45.05320 | 5.82896 | 36420 ft | 412 kts | 196° |
| 2026-05-04 12:26 | 45.02550 | 5.82038 | 36602 ft | 412 kts | 197° |
| 2026-05-04 12:26 | 44.99754 | 5.81173 | 36836 ft | 412 kts | 197° |
| 2026-05-04 12:27 | 44.96955 | 5.80309 | 37009 ft | 412 kts | 197° |
| 2026-05-04 12:27 | 44.94149 | 5.79446 | 37041 ft | 411 kts | 197° |
| 2026-05-04 12:27 | 44.88564 | 5.77731 | 37040 ft | 411 kts | 197° |
| 2026-05-04 12:28 | 44.82979 | 5.76014 | 37039 ft | 410 kts | 197° |
| 2026-05-04 12:28 | 44.77400 | 5.74304 | 37046 ft | 410 kts | 197° |
| 2026-05-04 12:29 | 44.71814 | 5.72603 | 37044 ft | 410 kts | 197° |
| 2026-05-04 12:29 | 44.66232 | 5.70906 | 37073 ft | 411 kts | 197° |
| 2026-05-04 12:30 | 44.60688 | 5.69222 | 37079 ft | 410 kts | 197° |
| 2026-05-04 12:30 | 44.55111 | 5.67536 | 37076 ft | 410 kts | 197° |
| 2026-05-04 12:31 | 44.49543 | 5.65851 | 37072 ft | 409 kts | 197° |
| 2026-05-04 12:31 | 44.43979 | 5.64158 | 37060 ft | 409 kts | 197° |
| 2026-05-04 12:32 | 44.35763 | 5.61134 | 37054 ft | 404 kts | 205° |
| 2026-05-04 12:33 | 44.30531 | 5.58257 | 37055 ft | 404 kts | 205° |
| 2026-05-04 12:33 | 44.25298 | 5.55391 | 37050 ft | 404 kts | 205° |
| 2026-05-04 12:34 | 44.20068 | 5.52539 | 37060 ft | 403 kts | 205° |
| 2026-05-04 12:34 | 44.14851 | 5.49691 | 37062 ft | 403 kts | 206° |
| 2026-05-04 12:35 | 44.09666 | 5.46864 | 37054 ft | 403 kts | 205° |
| 2026-05-04 12:35 | 44.04449 | 5.44031 | 37039 ft | 402 kts | 206° |
| 2026-05-04 12:36 | 43.99224 | 5.41201 | 37045 ft | 402 kts | 206° |
| 2026-05-04 12:36 | 43.94005 | 5.38372 | 37042 ft | 402 kts | 206° |
| 2026-05-04 12:37 | 43.88792 | 5.35550 | 37032 ft | 402 kts | 206° |
| 2026-05-04 12:37 | 43.83581 | 5.32737 | 37059 ft | 401 kts | 206° |
| 2026-05-04 12:38 | 43.78378 | 5.29930 | 37053 ft | 401 kts | 206° |
| 2026-05-04 12:38 | 43.73189 | 5.27144 | 37053 ft | 400 kts | 206° |
| 2026-05-04 12:39 | 43.68006 | 5.24369 | 37045 ft | 399 kts | 206° |
| 2026-05-04 12:39 | 43.62826 | 5.21602 | 37052 ft | 398 kts | 206° |
| 2026-05-04 12:40 | 43.57666 | 5.18831 | 37042 ft | 397 kts | 206° |
| 2026-05-04 12:40 | 43.52510 | 5.16078 | 37050 ft | 397 kts | 206° |
| 2026-05-04 12:41 | 43.47363 | 5.13335 | 37036 ft | 396 kts | 206° |
| 2026-05-04 12:41 | 43.42217 | 5.10593 | 37033 ft | 396 kts | 206° |
| 2026-05-04 12:42 | 43.37262 | 5.07396 | 37034 ft | 390 kts | 218° |
| 2026-05-04 12:42 | 43.32806 | 5.03173 | 37030 ft | 389 kts | 218° |
| 2026-05-04 12:43 | 43.28339 | 4.98976 | 37005 ft | 389 kts | 218° |
| 2026-05-04 12:43 | 43.23904 | 4.94812 | 37031 ft | 389 kts | 217° |
| 2026-05-04 12:44 | 43.19442 | 4.90627 | 37023 ft | 389 kts | 217° |
| 2026-05-04 12:44 | 43.15692 | 4.87122 | 37010 ft | 389 kts | 217° |
| 2026-05-04 12:45 | 43.11222 | 4.82935 | 36985 ft | 389 kts | 217° |
| 2026-05-04 12:45 | 43.06785 | 4.78785 | 36991 ft | 389 kts | 217° |
| 2026-05-04 12:46 | 43.02103 | 4.75017 | 36999 ft | 391 kts | 213° |
| 2026-05-04 12:46 | 42.97348 | 4.71409 | 36994 ft | 391 kts | 213° |
| 2026-05-04 12:47 | 42.92593 | 4.67810 | 36989 ft | 391 kts | 213° |
| 2026-05-04 12:47 | 42.87828 | 4.64215 | 36985 ft | 391 kts | 213° |
| 2026-05-04 12:48 | 42.83074 | 4.60627 | 36989 ft | 391 kts | 213° |
| 2026-05-04 12:48 | 42.78318 | 4.57037 | 37004 ft | 390 kts | 213° |
| 2026-05-04 12:49 | 42.73594 | 4.53485 | 36999 ft | 391 kts | 212° |
| 2026-05-04 12:49 | 42.68828 | 4.49911 | 36992 ft | 391 kts | 212° |
| 2026-05-04 12:50 | 42.64066 | 4.46348 | 36996 ft | 391 kts | 212° |
| 2026-05-04 12:50 | 42.59294 | 4.42781 | 36994 ft | 391 kts | 212° |
| 2026-05-04 12:51 | 42.54531 | 4.39213 | 36978 ft | 391 kts | 212° |
| 2026-05-04 12:51 | 42.49761 | 4.35654 | 36971 ft | 390 kts | 213° |
| 2026-05-04 12:52 | 42.45008 | 4.32115 | 36985 ft | 389 kts | 213° |
| 2026-05-04 12:52 | 42.40262 | 4.28586 | 36987 ft | 389 kts | 213° |
| 2026-05-04 12:53 | 42.35548 | 4.25096 | 36979 ft | 388 kts | 213° |
| 2026-05-04 12:53 | 42.30781 | 4.21569 | 36959 ft | 388 kts | 213° |
| 2026-05-04 12:54 | 42.26075 | 4.18095 | 36983 ft | 388 kts | 212° |
| 2026-05-04 12:54 | 42.21345 | 4.14612 | 36981 ft | 387 kts | 212° |
| 2026-05-04 12:55 | 42.16623 | 4.11122 | 36971 ft | 387 kts | 212° |
| 2026-05-04 12:55 | 42.11897 | 4.07640 | 36952 ft | 387 kts | 213° |
| 2026-05-04 12:56 | 42.07181 | 4.04161 | 36953 ft | 387 kts | 212° |
| 2026-05-04 12:56 | 42.02457 | 4.00696 | 36959 ft | 387 kts | 212° |
| 2026-05-04 12:57 | 41.97723 | 3.97251 | 36964 ft | 387 kts | 212° |
| 2026-05-04 12:57 | 41.92941 | 3.93920 | 36961 ft | 390 kts | 206° |
| 2026-05-04 12:58 | 41.89248 | 3.92596 | 36938 ft | 397 kts | 196° |
| 2026-05-04 12:58 | 41.84453 | 3.91495 | 36943 ft | 398 kts | 196° |
| 2026-05-04 12:59 | 41.79021 | 3.90264 | 36950 ft | 398 kts | 196° |
| 2026-05-04 12:59 | 41.73553 | 3.89024 | 36956 ft | 398 kts | 196° |
| 2026-05-04 13:00 | 41.68091 | 3.87768 | 36946 ft | 398 kts | 196° |
| 2026-05-04 13:00 | 41.62627 | 3.86508 | 36952 ft | 399 kts | 196° |
| 2026-05-04 13:01 | 41.57156 | 3.85246 | 36960 ft | 399 kts | 196° |
| 2026-05-04 13:01 | 41.51686 | 3.83987 | 36960 ft | 399 kts | 196° |
| 2026-05-04 13:02 | 41.46218 | 3.82735 | 36945 ft | 399 kts | 196° |
| 2026-05-04 13:02 | 41.40750 | 3.81481 | 36956 ft | 399 kts | 196° |
| 2026-05-04 13:03 | 41.35284 | 3.80237 | 36980 ft | 398 kts | 196° |
| 2026-05-04 13:03 | 41.29827 | 3.78980 | 36980 ft | 398 kts | 196° |
| 2026-05-04 13:04 | 41.24371 | 3.77733 | 36975 ft | 397 kts | 196° |
| 2026-05-04 13:04 | 41.18957 | 3.76508 | 36981 ft | 397 kts | 196° |
| 2026-05-04 13:05 | 41.13642 | 3.74838 | 36975 ft | 388 kts | 206° |
| 2026-05-04 13:05 | 41.08609 | 3.72231 | 36791 ft | 388 kts | 206° |
| 2026-05-04 13:05 | 41.06096 | 3.70930 | 36505 ft | 388 kts | 206° |
| 2026-05-04 13:06 | 41.03586 | 3.69637 | 36244 ft | 387 kts | 206° |
| 2026-05-04 13:06 | 41.01073 | 3.68345 | 35978 ft | 387 kts | 206° |
| 2026-05-04 13:06 | 40.98557 | 3.67058 | 35744 ft | 387 kts | 206° |
| 2026-05-04 13:06 | 40.96052 | 3.65772 | 35491 ft | 387 kts | 206° |
| 2026-05-04 13:07 | 40.93542 | 3.64483 | 35242 ft | 387 kts | 206° |
| 2026-05-04 13:07 | 40.91031 | 3.63194 | 34999 ft | 386 kts | 206° |
| 2026-05-04 13:07 | 40.88521 | 3.61908 | 34755 ft | 386 kts | 205° |
| 2026-05-04 13:07 | 40.86010 | 3.60625 | 34515 ft | 386 kts | 205° |
| 2026-05-04 13:08 | 40.83537 | 3.59361 | 34261 ft | 386 kts | 205° |
| 2026-05-04 13:08 | 40.81034 | 3.58079 | 34029 ft | 386 kts | 205° |
| 2026-05-04 13:08 | 40.78531 | 3.56803 | 33763 ft | 386 kts | 205° |
| 2026-05-04 13:08 | 40.76028 | 3.55525 | 33489 ft | 387 kts | 205° |
| 2026-05-04 13:09 | 40.73513 | 3.54237 | 33220 ft | 388 kts | 205° |
| 2026-05-04 13:09 | 40.70995 | 3.52948 | 32954 ft | 389 kts | 205° |
| 2026-05-04 13:09 | 40.68464 | 3.51651 | 32692 ft | 390 kts | 205° |
| 2026-05-04 13:09 | 40.65928 | 3.50355 | 32429 ft | 392 kts | 205° |
| 2026-05-04 13:10 | 40.63378 | 3.49062 | 32045 ft | 393 kts | 205° |
| 2026-05-04 13:10 | 40.60809 | 3.47761 | 31126 ft | 397 kts | 205° |
| 2026-05-04 13:10 | 40.58230 | 3.46456 | 30298 ft | 398 kts | 205° |
| 2026-05-04 13:10 | 40.55633 | 3.45141 | 29258 ft | 402 kts | 205° |
| 2026-05-04 13:11 | 40.53019 | 3.43817 | 28256 ft | 404 kts | 205° |
| 2026-05-04 13:11 | 40.50397 | 3.42492 | 27327 ft | 404 kts | 205° |
| 2026-05-04 13:11 | 40.47762 | 3.41161 | 26247 ft | 408 kts | 205° |
| 2026-05-04 13:11 | 40.45031 | 3.40019 | 25230 ft | 416 kts | 197° |
| 2026-05-04 13:12 | 40.42163 | 3.39470 | 24453 ft | 419 kts | 188° |
| 2026-05-04 13:12 | 40.39232 | 3.39497 | 23671 ft | 422 kts | 182° |
| 2026-05-04 13:12 | 40.36298 | 3.39669 | 22801 ft | 421 kts | 182° |
| 2026-05-04 13:12 | 40.33383 | 3.39837 | 22056 ft | 418 kts | 182° |
| 2026-05-04 13:13 | 40.30490 | 3.40003 | 21326 ft | 415 kts | 182° |
| 2026-05-04 13:13 | 40.27656 | 3.40167 | 20638 ft | 412 kts | 182° |
| 2026-05-04 13:13 | 40.24801 | 3.40330 | 19954 ft | 409 kts | 182° |
| 2026-05-04 13:13 | 40.21968 | 3.40492 | 19372 ft | 404 kts | 181° |
| 2026-05-04 13:14 | 40.19213 | 3.40655 | 19222 ft | 388 kts | 182° |
| 2026-05-04 13:14 | 40.16614 | 3.40814 | 19093 ft | 360 kts | 182° |
| 2026-05-04 13:14 | 40.14202 | 3.40958 | 18967 ft | 335 kts | 182° |
| 2026-05-04 13:14 | 40.11920 | 3.41092 | 18566 ft | 322 kts | 183° |
| 2026-05-04 13:15 | 40.09701 | 3.41212 | 18263 ft | 318 kts | 183° |
| 2026-05-04 13:15 | 40.07496 | 3.41323 | 18000 ft | 316 kts | 183° |
| 2026-05-04 13:15 | 40.05303 | 3.41435 | 17737 ft | 315 kts | 182° |
| 2026-05-04 13:15 | 40.03120 | 3.41551 | 17471 ft | 314 kts | 182° |
| 2026-05-04 13:16 | 40.00941 | 3.41672 | 17214 ft | 312 kts | 182° |
| 2026-05-04 13:16 | 39.98781 | 3.41794 | 16956 ft | 311 kts | 182° |
| 2026-05-04 13:16 | 39.96621 | 3.41917 | 16690 ft | 310 kts | 182° |
| 2026-05-04 13:16 | 39.94471 | 3.42044 | 16426 ft | 309 kts | 182° |
| 2026-05-04 13:17 | 39.92319 | 3.42173 | 16020 ft | 309 kts | 182° |
| 2026-05-04 13:17 | 39.90168 | 3.42300 | 15600 ft | 310 kts | 182° |
| 2026-05-04 13:17 | 39.88029 | 3.42423 | 15347 ft | 306 kts | 182° |
| 2026-05-04 13:17 | 39.85929 | 3.42541 | 15025 ft | 305 kts | 182° |
| 2026-05-04 13:18 | 39.83803 | 3.42656 | 14660 ft | 306 kts | 182° |
| 2026-05-04 13:18 | 39.81669 | 3.42768 | 14257 ft | 308 kts | 181° |
| 2026-05-04 13:18 | 39.79542 | 3.42884 | 13852 ft | 302 kts | 181° |
| 2026-05-04 13:18 | 39.77464 | 3.43001 | 13415 ft | 295 kts | 181° |
| 2026-05-04 13:19 | 39.75429 | 3.43120 | 12955 ft | 292 kts | 181° |
| 2026-05-04 13:19 | 39.73409 | 3.43037 | 12525 ft | 289 kts | 196° |
| 2026-05-04 13:19 | 39.71624 | 3.41954 | 12098 ft | 284 kts | 220° |
| 2026-05-04 13:19 | 39.70398 | 3.39978 | 11670 ft | 282 kts | 244° |
| 2026-05-04 13:20 | 39.69959 | 3.37526 | 11240 ft | 282 kts | 266° |
| 2026-05-04 13:20 | 39.70025 | 3.34992 | 10802 ft | 279 kts | 269° |
| 2026-05-04 13:20 | 39.70110 | 3.32494 | 10370 ft | 276 kts | 269° |
| 2026-05-04 13:20 | 39.70196 | 3.30018 | 9942 ft | 273 kts | 269° |
| 2026-05-04 13:21 | 39.70280 | 3.27558 | 9461 ft | 273 kts | 269° |
| 2026-05-04 13:21 | 39.70362 | 3.25097 | 8944 ft | 272 kts | 269° |
| 2026-05-04 13:21 | 39.70439 | 3.22631 | 8432 ft | 272 kts | 269° |
| 2026-05-04 13:21 | 39.70513 | 3.20190 | 7931 ft | 269 kts | 269° |
| 2026-05-04 13:22 | 39.70585 | 3.17775 | 7428 ft | 266 kts | 269° |
| 2026-05-04 13:22 | 39.70656 | 3.15385 | 6943 ft | 264 kts | 269° |
| 2026-05-04 13:22 | 39.70726 | 3.13043 | 6472 ft | 262 kts | 269° |
| 2026-05-04 13:22 | 39.70795 | 3.10694 | 5971 ft | 259 kts | 268° |
| 2026-05-04 13:23 | 39.70562 | 3.08425 | 5581 ft | 250 kts | 249° |
| 2026-05-04 13:23 | 39.69767 | 3.06433 | 5268 ft | 247 kts | 238° |
| 2026-05-04 13:23 | 39.68898 | 3.04583 | 4966 ft | 233 kts | 238° |
| 2026-05-04 13:23 | 39.68082 | 3.02840 | 4669 ft | 220 kts | 237° |
| 2026-05-04 13:24 | 39.67303 | 3.01177 | 4392 ft | 213 kts | 238° |
| 2026-05-04 13:24 | 39.66534 | 2.99538 | 4092 ft | 210 kts | 238° |
| 2026-05-04 13:24 | 39.65793 | 2.97956 | 3820 ft | 201 kts | 238° |
| 2026-05-04 13:25 | 39.64400 | 2.94986 | 3344 ft | 182 kts | 237° |
| 2026-05-04 13:25 | 39.63761 | 2.93627 | 3087 ft | 171 kts | 239° |
| 2026-05-04 13:25 | 39.63159 | 2.92345 | 2856 ft | 163 kts | 238° |
| 2026-05-04 13:25 | 39.62575 | 2.91101 | 2651 ft | 163 kts | 238° |
| 2026-05-04 13:26 | 39.61985 | 2.89848 | 2439 ft | 161 kts | 239° |
| 2026-05-04 13:26 | 39.61417 | 2.88641 | 2309 ft | 146 kts | 238° |
| 2026-05-04 13:26 | 39.60909 | 2.87562 | 2149 ft | 138 kts | 237° |
| 2026-05-04 13:26 | 39.60407 | 2.86496 | 1849 ft | 139 kts | 237° |
| 2026-05-04 13:27 | 39.59917 | 2.85456 | 1651 ft | 131 kts | 237° |
| 2026-05-04 13:27 | 39.59445 | 2.84452 | 1489 ft | 129 kts | 237° |
| 2026-05-04 13:27 | 39.58957 | 2.83419 | 1308 ft | 138 kts | 236° |
| 2026-05-04 13:27 | 39.58470 | 2.82389 | 1163 ft | 134 kts | 237° |
| 2026-05-04 13:28 | 39.57974 | 2.81353 | 1038 ft | 132 kts | 237° |
| 2026-05-04 13:28 | 39.57490 | 2.80339 | 854 ft | 132 kts | 236° |
| 2026-05-04 13:28 | 39.57018 | 2.79318 | 668 ft | 133 kts | 238° |
| 2026-05-04 13:28 | 39.56541 | 2.78279 | 457 ft | 133 kts | 238° |
| 2026-05-04 13:29 | 39.56052 | 2.77260 | 263 ft | 135 kts | 237° |